Terminal Aerodrome Forecast
Issued by NWS Nashville, TN

Current Version | Previous Version | Text Only | Print | Product List | Glossary Off
Versions: 1 2 3 4 5 6 7 8 9 10 11 12 13 14 15 16 17 18 19 20 21 22 23 24 25 26 27 28 29 30 31 32 33 34 35 36

000
FTUS80 KOHX 281413 AAA
TAFBNA
TAF AMD
KBNA 281413Z 2814/2912 34005KT P6SM BKN015
     FM282000 36006KT P6SM BKN040
     FM290900 04005KT 4SM BR BKN070=

USA.gov is the U.S. government's official web portal to all federal, state and local government web resources and services.